Impacts METAR Board INFO
IDs:

KSTL - St Louis/Lambert Int, MO, US

Updated at: 1208 UTC 12 Dec 2017
Potential Impact None Slight Moderate High
Time12/00Z 12/01Z 12/02Z 12/03Z 12/04Z 12/05Z 12/06Z 12/07Z 12/08Z 12/09Z 12/10Z 12/11Z 12/12Z
VIS10 10 10 10 10 10 10 10 10 10 10 10 10
CIG55 55 41 35 31 24 25 23 31 37 35 34 32
CoverOVCOVCOVCOVCOVCOVCOVCOVCOVCOVCBKNBKNBKN
FltCatVFRVFRVFRVFRVFRMVFRMVFRMVFRVFRVFRVFRVFRVFR
WX--------------------------
WDir300290300310310330320320320330320320310
WSpd16 14 13 18 22 19 22 18 17 15 17 18 17
WGst36 25 23 27 30 30 30 25 29 24 24 27 22
Raw hourly METARs
KSTL 112351Z 30016G36KT 10SM BKN055 OVC100 09/M01 A2989 RMK AO2 PK WND 31036/2342 SLP127 T00941006 10144 20094 51034
KSTL 120051Z 29014G25KT 10SM SCT044 OVC055 09/00 A2991 RMK AO2 PK WND 28032/0032 SLP135 T00890000
KSTL 120151Z 30013G23KT 10SM BKN041 OVC055 08/01 A2994 RMK AO2 PK WND 31026/0059 SLP143 T00830006
KSTL 120251Z 31018G27KT 10SM OVC035 08/01 A2997 RMK AO2 PK WND 32027/0251 SLP151 T00780011 53026
KSTL 120351Z 31022G30KT 10SM OVC031 07/01 A2999 RMK AO2 PK WND 31030/0351 SLP157 T00720011
KSTL 120451Z 33019G30KT 10SM OVC024 06/01 A3002 RMK AO2 PK WND 33031/0441 SLP169 T00560011
KSTL 120551Z 32022G30KT 10SM OVC025 05/01 A3004 RMK AO2 PK WND 32030/0549 SLP175 T00500006 10094 20050 401441017 51025
KSTL 120651Z 32018G25KT 10SM OVC023 05/00 A3006 RMK AO2 PK WND 32031/0605 SLP180 T00500000
KSTL 120751Z 32017G29KT 10SM FEW024 OVC031 04/M02 A3008 RMK AO2 PK WND 32031/0741 SLP187 T00391017
KSTL 120851Z 33015G24KT 10SM OVC037 03/M04 A3010 RMK AO2 PK WND 31029/0757 SLP197 T00331039 53020
KSTL 120951Z 32017G24KT 10SM BKN035 02/M05 A3012 RMK AO2 PK WND 32028/0921 SLP205 T00221050
KSTL 121051Z 32018G27KT 10SM BKN034 01/M07 A3015 RMK AO2 PK WND 32027/1043 SLP213 T00061067
KSTL 121151Z 31017G22KT 10SM BKN032 M01/M07 A3018 RMK AO2 SLP225 T10061067 10050 21006 53024